Photo de Laille
Rennes
couvert
Metar : 2018/01/20 18:30 LFRN 201830Z AUTO 27009KT 9999 BKN017 OVC024 12/11 Q1009 TEMPO 4000 RADZ BKN004 BECMG 28015G25KT
Couverture nuageuse : Mostly Cloudy 1700 ft Overcast 2400 ft
Pression de 29.8 inHg (1009 hPa)
Humidité : 94%
Température : 54°F (12°C)
Vent de W at 10 mph (17 km/h)
Visibilité : 6 miles (10 km)
Nantes
couvert
Metar : 2018/01/20 18:30 LFRS 201830Z AUTO 28016G27KT 9999 OVC009 12/11 Q1011 TEMPO 4000 -RADZ
Couverture nuageuse : Overcast 900 ft
Traduc : Partly cloudy 700 ft
Pression de 29.85 inHg (1011 hPa)
Humidité : 94%
Température : 54°F (12°C)
Point de rosée : 52°F (11°C)
Vent de W at 18 mph (30 km/h), gusting to 31 mph (50 km/h)
Visibilité : 6 miles (10 km)
Lannion
Légère bruine, nuageux
Metar : 2018/01/20 18:30 LFRO 201830Z AUTO 27021KT 6000 -DZ BKN006 BKN012 BKN017 11/10 Q1010 TEMPO 2000 RA OVC003 BECMG 27022G35KT
Couverture nuageuse : Mostly Cloudy 600 ft Mostly Cloudy 1200 ft Mostly Cloudy 1700 ft
Traduc : Partly cloudy 700 ft
Pression de 29.83 inHg (1010 hPa)
Humidité : 94%
Température : 52°F (11°C)
Point de rosée : 50°F (10°C)
Vent de W at 24 mph (39 km/h)
Visibilité : 4 miles (6 km)
Dinard
nuageux
Metar : 2018/01/20 18:30 LFRD 201830Z AUTO 29024G40KT 9999 SCT016 SCT036 BKN047 11/09 Q1008 TEMPO 3000 RADZ BKN007 BECMG 27020G30KT
Couverture nuageuse : Partly Cloudy 1600 ft Partly Cloudy 3600 ft Mostly Cloudy 4700 ft
Traduc : Partly cloudy 700 ft
Pression de 29.77 inHg (1008 hPa)
Humidité : 88%
Température : 52°F (11°C)
Point de rosée : 48°F (9°C)
Vent de WNW at 28 mph (44 km/h), gusting to 46 mph (74 km/h)
Visibilité : 6 miles (10 km)
Brest
couvert
Metar : 2018/01/20 18:30 LFRB 201830Z AUTO 29017KT 9999 OVC008 12/11 Q1012 TEMPO 2000 RA OVC003 BECMG 28017G35KT
Couverture nuageuse : Overcast 800 ft
Traduc : Partly cloudy 700 ft
Pression de 29.88 inHg (1012 hPa)
Humidité : 94%
Température : 54°F (12°C)
Point de rosée : 52°F (11°C)
Vent de WNW at 20 mph (31 km/h)
Visibilité : 6 miles (10 km)
Quimper
couvert
Metar : 2018/01/09 10:30 LFRQ 091030Z AUTO 18006KT 9999 OVC012 09/09 Q1004 TEMPO 17020G30KT BKN002 BECMG 4000 -RA
Couverture nuageuse : Overcast 1200 ft
Traduc : Partly cloudy 700 ft
Pression de 29.65 inHg (1004 hPa)
Humidité : 100%
Température : 48°F (9°C)
Point de rosée : 48°F (9°C)
Vent de S at 7 mph (11 km/h)
Visibilité : 6 miles (10 km)
St Nazaire
couvert
Metar : 2018/01/20 18:30 LFRZ 201830Z AUTO 28018G28KT 250V310 9999 OVC009 13/11 Q1011 TEMPO 3000 -RADZ BECMG 27020G40KT
Couverture nuageuse : Overcast 900 ft
Traduc : Partly cloudy 700 ft
Pression de 29.85 inHg (1011 hPa)
Humidité : 88%
Température : 55°F (13°C)
Point de rosée : 52°F (11°C)
Vent de W at 21 mph (33 km/h), gusting to 32 mph (52 km/h)
Visibilité : 6 miles (10 km)
St Brieuc
Brume, couvert
Metar : 2018/01/09 10:30 LFRT 091030Z AUTO 19006KT 150V240 5000 BR OVC004 07/07 Q1005
Couverture nuageuse : Overcast 400 ft
Traduc : Partly cloudy 700 ft
Pression de 29.68 inHg (1005 hPa)
Humidité : 100%
Température : 45°F (7°C)
Point de rosée : 45°F (7°C)
Vent de S at 7 mph (11 km/h)
Visibilité : 3 miles (5 km)
Lorient
couvert
Metar : 2018/01/09 10:30 LFRH 091030Z AUTO 16003KT 120V200 9999 BKN012 BKN043 OVC052 10/09 Q1006 NOSIG
Couverture nuageuse : Mostly Cloudy 1200 ft Mostly Cloudy 4300 ft Overcast 5200 ft
Traduc : Partly cloudy 700 ft
Pression de 29.71 inHg (1006 hPa)
Humidité : 94%
Température : 50°F (10°C)
Point de rosée : 48°F (9°C)
Vent de SSE at 3 mph (6 km/h)
Visibilité : 6 miles (10 km)
Vannes-Meucon
couvert
Metar : 2018/01/20 18:30 LFRV 201830Z AUTO 29011KT 250V310 9999 BKN016 OVC021 12/10 Q1011
Couverture nuageuse : Mostly Cloudy 1600 ft Overcast 2100 ft
Traduc : Partly cloudy 700 ft
Pression de 29.85 inHg (1011 hPa)
Humidité : 88%
Température : 54°F (12°C)
Point de rosée : 50°F (10°C)
Vent de WNW at 13 mph (20 km/h)
Visibilité : 6 miles (10 km)

 


   Weather Underground PWS IBRETAGN39      Weather Underground PWS IBRETAGN39Retour Météo-Laillé adhérent de Météo-Bretagne et d'Infoclimat. Données mises à jour en temps réel via Météolink Climatologie réalisée sous Wswin et GraphWeather.

Affichage prévisions météo de WeatherUnderground via script PHP de Saratoga.

Copyright 2012-2017